Terminal Aerodrome Forecast
Issued by NWS Lake Charles, LA

Home | Current Version | Previous Version | Text Only | Print | Product List | Glossary On
Versions: 1 2 3 4 5 6 7 8 9 10 11 12 13
387
FTUS44 KLCH 120618 AAA
TAFLFT
TAF AMD
KLFT 120618Z 1206/1306 21004KT 4SM BR SCT015
      TEMPO 1206/1210 1/2SM FG BKN003
     FM121000 22003KT 1/2SM FG OVC002
      TEMPO 1211/1215 4SM BR BKN015
     FM121500 24006KT P6SM SCT020
     FM121800 27010KT P6SM SCT250
     FM130200 33005KT P6SM SCT050=

USA.gov is the U.S. government's official web portal to all federal, state and local government web resources and services.